Time;durP1;ratioP1;P1;durP2;ratioP2;P2;SDS_P1;SDS_P2;PMS_P1;PMS_P2;Temp;Humidity;BMP_temperature;BMP_pressure;BME280_temperature;BME280_humidity;BME280_pressure;Samples;Min_cycle;Max_cycle;Signal;HPM_P1;HPM_P2
2024/03/29 00:00:12;;;;;;;0.50;0.50;;;;;;;6.31;56.82;95118.91;29395;207;63009;-55
2024/03/29 00:00:44;;;;;;;0.50;0.50;;;;;;;6.33;56.74;95111.31;29395;209;63005;-54
2024/03/29 00:01:15;;;;;;;0.50;0.50;;;;;;;6.37;56.59;95115.00;29395;198;63009;-55
2024/03/29 00:01:46;;;;;;;0.50;0.50;;;;;;;6.39;56.77;95113.59;29395;216;63005;-54
2024/03/29 00:02:18;;;;;;;0.60;0.60;;;;;;;6.42;56.75;95112.19;29395;206;63009;-54
2024/03/29 00:02:50;;;;;;;0.60;0.60;;;;;;;6.45;56.63;95121.53;29395;247;63005;-53
2024/03/29 00:03:22;;;;;;;0.57;0.57;;;;;;;6.43;56.96;95118.34;29395;258;63009;-54
2024/03/29 00:03:54;;;;;;;0.60;0.60;;;;;;;6.39;56.83;95116.28;29395;212;63005;-55
2024/03/29 00:04:26;;;;;;;0.60;0.60;;;;;;;6.40;57.07;95119.78;29395;271;63009;-54
2024/03/29 00:04:57;;;;;;;0.52;0.52;;;;;;;6.39;56.73;95118.19;29394;211;64009;-54
2024/03/29 00:05:29;;;;;;;0.50;0.50;;;;;;;6.39;56.90;95118.19;29395;218;63009;-54
2024/03/29 00:06:01;;;;;;;0.50;0.50;;;;;;;6.38;57.00;95116.59;29395;225;63004;-55
2024/03/29 00:06:33;;;;;;;0.55;0.55;;;;;;;6.37;57.13;95117.69;29395;237;63009;-55
2024/03/29 00:07:04;;;;;;;0.50;0.50;;;;;;;6.36;57.40;95118.78;29395;269;63004;-53
2024/03/29 00:07:35;;;;;;;0.52;0.52;;;;;;;6.37;57.09;95118.50;29395;215;63009;-54
2024/03/29 00:08:08;;;;;;;0.57;0.57;;;;;;;6.37;57.11;95113.09;29395;222;63005;-54
2024/03/29 00:08:42;;;;;;;0.52;0.52;;;;;;;6.38;56.88;95111.19;29395;205;63009;-54
2024/03/29 00:09:14;;;;;;;0.50;0.50;;;;;;;6.37;57.02;95109.59;29395;321;63005;-54
2024/03/29 00:09:45;;;;;;;0.50;0.50;;;;;;;6.41;57.24;95105.19;29395;247;63009;-54
2024/03/29 00:10:19;;;;;;;0.50;0.50;;;;;;;6.42;56.96;95111.38;29394;197;64009;-53
2024/03/29 00:10:51;;;;;;;0.50;0.50;;;;;;;6.41;56.96;95109.78;29395;268;63009;-53
2024/03/29 00:11:22;;;;;;;0.50;0.50;;;;;;;6.39;56.94;95102.00;29395;205;63004;-54
2024/03/29 00:11:53;;;;;;;0.50;0.50;;;;;;;6.37;57.31;95104.22;29395;250;63009;-54
2024/03/29 00:12:24;;;;;;;0.50;0.50;;;;;;;6.38;57.42;95103.91;29395;223;63004;-55
2024/03/29 00:12:55;;;;;;;0.50;0.50;;;;;;;6.39;57.53;95105.50;29395;204;63009;-54
2024/03/29 00:13:27;;;;;;;0.50;0.50;;;;;;;6.41;57.30;95104.41;29395;197;63004;-54
2024/03/29 00:13:59;;;;;;;0.50;0.50;;;;;;;6.41;57.38;95109.78;29395;198;63008;-70
2024/03/29 00:14:32;;;;;;;0.50;0.50;;;;;;;6.39;57.73;95107.41;29395;231;63004;-52
2024/03/29 00:15:04;;;;;;;0.60;0.60;;;;;;;6.37;57.87;95106.91;29395;244;63009;-54
2024/03/29 00:15:36;;;;;;;0.50;0.50;;;;;;;6.36;57.98;95097.25;29394;202;64009;-55
2024/03/29 00:16:07;;;;;;;0.50;0.50;;;;;;;6.36;57.87;95097.25;29395;258;63009;-54
2024/03/29 00:16:39;;;;;;;0.60;0.60;;;;;;;6.36;57.96;95089.97;29395;197;63005;-54
2024/03/29 00:17:12;;;;;;;0.50;0.50;;;;;;;6.39;57.32;95088.53;29395;258;63009;-54
2024/03/29 00:17:43;;;;;;;0.50;0.50;;;;;;;6.39;57.65;95091.25;29395;202;63005;-54
2024/03/29 00:18:14;;;;;;;0.50;0.50;;;;;;;6.36;57.22;95081.88;29395;209;63019;-55
2024/03/29 00:18:46;;;;;;;0.50;0.50;;;;;;;6.33;57.65;95089.78;29395;276;63004;-54
2024/03/29 00:19:18;;;;;;;0.50;0.50;;;;;;;6.34;57.61;95094.84;29395;216;63009;-54
2024/03/29 00:19:49;;;;;;;0.50;0.50;;;;;;;6.33;57.86;95090.56;29395;209;63004;-53
2024/03/29 00:20:21;;;;;;;0.50;0.50;;;;;;;6.33;57.81;95093.28;29395;253;63009;-54
2024/03/29 00:20:52;;;;;;;0.50;0.50;;;;;;;6.34;58.13;95088.69;29394;307;64009;-53
2024/03/29 00:21:24;;;;;;;0.60;0.60;;;;;;;6.33;57.64;95090.56;29394;264;64013;-55
2024/03/29 00:21:56;;;;;;;0.50;0.50;;;;;;;6.33;57.96;95087.88;29395;288;63005;-56
2024/03/29 00:22:29;;;;;;;0.60;0.60;;;;;;;6.32;57.72;95097.06;29395;208;63009;-56
2024/03/29 00:23:00;;;;;;;0.50;0.50;;;;;;;6.33;57.90;95077.09;29395;204;63005;-54
2024/03/29 00:23:32;;;;;;;0.50;0.50;;;;;;;6.33;58.11;95089.78;29395;204;63009;-55
2024/03/29 00:24:04;;;;;;;0.50;0.50;;;;;;;6.31;58.16;95079.31;29395;297;63005;-54
2024/03/29 00:24:36;;;;;;;0.50;0.50;;;;;;;6.30;58.10;95082.31;29395;274;63009;-54
2024/03/29 00:25:09;;;;;;;0.50;0.50;;;;;;;6.31;58.20;95089.28;29395;215;63005;-54
2024/03/29 00:25:40;;;;;;;0.50;0.50;;;;;;;6.32;58.38;95077.41;29395;202;63009;-54
2024/03/29 00:26:11;;;;;;;0.50;0.50;;;;;;;6.32;58.26;95080.09;29395;206;63004;-54
2024/03/29 00:26:43;;;;;;;0.50;0.50;;;;;;;6.32;58.01;95086.28;29394;197;64013;-67
2024/03/29 00:27:14;;;;;;;0.50;0.50;;;;;;;6.35;57.94;95084.87;29395;213;63004;-53
2024/03/29 00:27:48;;;;;;;0.50;0.50;;;;;;;6.35;58.17;95079.50;29395;212;63009;-53
2024/03/29 00:28:19;;;;;;;0.50;0.50;;;;;;;6.36;58.12;95079.19;29395;304;63004;-63
2024/03/29 00:28:51;;;;;;;0.50;0.50;;;;;;;6.34;58.33;95067.91;29395;237;63008;-53
2024/03/29 00:29:22;;;;;;;0.50;0.50;;;;;;;6.32;58.25;95072.03;29395;212;63005;-53
2024/03/29 00:29:54;;;;;;;0.50;0.50;;;;;;;6.31;58.13;95063.16;29395;228;63009;-53
2024/03/29 00:30:26;;;;;;;0.50;0.50;;;;;;;6.32;58.20;95066.62;29394;243;64005;-54
2024/03/29 00:30:58;;;;;;;0.60;0.60;;;;;;;6.31;58.10;95067.75;29395;306;63009;-55
2024/03/29 00:31:30;;;;;;;0.50;0.50;;;;;;;6.30;58.19;95068.84;29395;217;63005;-54
2024/03/29 00:32:01;;;;;;;0.50;0.50;;;;;;;6.29;58.56;95069.94;29394;289;64013;-55
2024/03/29 00:32:33;;;;;;;0.50;0.50;;;;;;;6.31;58.42;95060.47;29395;198;63005;-69
2024/03/29 00:33:05;;;;;;;0.52;0.52;;;;;;;6.29;58.47;95056.47;29394;229;64009;-54
2024/03/29 00:33:36;;;;;;;0.60;0.60;;;;;;;6.30;58.44;95055.37;29395;219;63009;-54
2024/03/29 00:34:08;;;;;;;0.50;0.50;;;;;;;6.29;58.45;95053.78;29395;200;63009;-54
2024/03/29 00:34:39;;;;;;;0.50;0.50;;;;;;;6.29;58.60;95051.09;29395;278;63008;-53
2024/03/29 00:35:14;;;;;;;0.60;0.60;;;;;;;6.28;58.72;95044.91;29395;238;63009;-54
2024/03/29 00:35:45;;;;;;;0.50;0.50;;;;;;;6.28;58.65;95036.03;29394;243;64003;-54
2024/03/29 00:36:16;;;;;;;0.60;0.60;;;;;;;6.28;58.44;95044.13;29395;247;63008;-53
2024/03/29 00:36:49;;;;;;;0.50;0.50;;;;;;;6.27;58.53;95039.84;29394;202;64004;-54
2024/03/29 00:37:20;;;;;;;0.50;0.50;;;;;;;6.30;58.71;95041.91;29395;199;63009;-54
2024/03/29 00:37:52;;;;;;;0.50;0.50;;;;;;;6.30;58.37;95041.91;29395;232;63005;-54
2024/03/29 00:38:23;;;;;;;0.50;0.50;;;;;;;6.30;58.75;95042.72;29395;237;63009;-54
2024/03/29 00:38:55;;;;;;;0.50;0.50;;;;;;;6.28;59.24;95042.22;29395;206;63005;-56
2024/03/29 00:39:26;;;;;;;0.50;0.50;;;;;;;6.27;58.90;95043.31;29395;209;63016;-54
2024/03/29 00:39:58;;;;;;;0.50;0.50;;;;;;;6.28;58.80;95030.66;29395;237;63005;-54
2024/03/29 00:40:32;;;;;;;0.50;0.50;;;;;;;6.30;58.63;95034.62;29394;203;64013;-54
2024/03/29 00:41:04;;;;;;;0.50;0.50;;;;;;;6.33;58.52;95034.00;29395;249;63004;-55
2024/03/29 00:41:35;;;;;;;0.50;0.50;;;;;;;6.35;58.46;95031.00;29395;240;63009;-54
2024/03/29 00:42:18;;;;;;;0.60;0.60;;;;;;;6.37;58.43;95026.09;29395;206;63004;-54
2024/03/29 00:42:49;;;;;;;0.50;0.50;;;;;;;6.37;58.61;95031.50;29395;204;63009;-54
2024/03/29 00:43:21;;;;;;;0.60;0.60;;;;;;;6.37;58.85;95023.41;29395;300;63006;-53
2024/03/29 00:43:52;;;;;;;0.60;0.60;;;;;;;6.37;58.71;95018.81;29395;234;63014;-54
2024/03/29 00:44:23;;;;;;;0.50;0.50;;;;;;;6.42;58.69;95014.41;29395;241;63001;-54
2024/03/29 00:44:54;;;;;;;0.60;0.60;;;;;;;6.42;58.43;95020.59;29395;225;63009;-54
2024/03/29 00:45:26;;;;;;;0.50;0.50;;;;;;;6.44;58.42;95018.38;29394;244;64009;-52
2024/03/29 00:45:57;;;;;;;0.50;0.50;;;;;;;6.45;58.92;95019.16;29395;280;63009;-54
2024/03/29 00:46:28;;;;;;;0.60;0.60;;;;;;;6.41;58.93;95008.22;29395;197;63005;-54
2024/03/29 00:47:00;;;;;;;0.60;0.60;;;;;;;6.41;59.18;95007.41;29395;203;63009;-54
2024/03/29 00:47:31;;;;;;;0.98;0.95;;;;;;;6.39;59.00;95005.84;29395;252;63005;-53
2024/03/29 00:48:03;;;;;;;0.50;0.50;;;;;;;6.39;59.19;95007.72;29395;251;63009;-54
2024/03/29 00:48:34;;;;;;;0.50;0.50;;;;;;;6.39;58.99;95005.03;29395;246;63005;-53
2024/03/29 00:49:06;;;;;;;0.50;0.50;;;;;;;6.39;59.17;95005.03;29395;274;63020;-53
2024/03/29 00:49:37;;;;;;;0.60;0.60;;;;;;;6.36;59.10;95006.44;29395;202;63009;-54
2024/03/29 00:50:09;;;;;;;0.50;0.50;;;;;;;6.36;59.39;95011.03;29395;218;63009;-54
2024/03/29 00:50:41;;;;;;;0.50;0.50;;;;;;;6.35;59.48;95014.84;29394;214;64009;-54
2024/03/29 00:51:12;;;;;;;0.50;0.50;;;;;;;6.35;59.45;95004.88;29395;261;63008;-54
2024/03/29 00:51:43;;;;;;;0.50;0.50;;;;;;;6.36;59.06;95011.03;29395;235;63018;-54
2024/03/29 00:52:14;;;;;;;0.60;0.60;;;;;;;6.36;59.50;95011.03;29395;223;63009;-53
2024/03/29 00:52:48;;;;;;;0.50;0.50;;;;;;;6.35;59.55;95004.06;29394;208;64009;-53
2024/03/29 00:53:19;;;;;;;0.60;0.60;;;;;;;6.34;59.53;95002.47;29395;268;63009;-55
2024/03/29 00:53:50;;;;;;;0.50;0.50;;;;;;;6.36;59.34;95005.66;29395;259;63005;-54
2024/03/29 00:54:23;;;;;;;0.50;0.50;;;;;;;6.36;59.47;95014.53;29395;207;63009;-54
2024/03/29 00:54:54;;;;;;;0.60;0.60;;;;;;;6.35;59.22;95004.06;29395;215;63011;-55
2024/03/29 00:55:26;;;;;;;0.50;0.50;;;;;;;6.36;59.43;95011.03;29395;274;63009;-54
2024/03/29 00:55:57;;;;;;;0.60;0.60;;;;;;;6.36;59.55;95016.44;29395;241;63005;-54
2024/03/29 00:56:28;;;;;;;0.60;0.60;;;;;;;6.37;59.69;95023.41;29395;261;63009;-53
2024/03/29 00:57:01;;;;;;;0.50;0.50;;;;;;;6.38;59.75;95025.00;29395;260;63004;-54
2024/03/29 00:57:32;;;;;;;0.60;0.60;;;;;;;6.39;60.01;95031.97;29395;254;63009;-54
2024/03/29 00:58:04;;;;;;;0.50;0.50;;;;;;;6.37;60.10;95029.59;29394;273;64009;-54
2024/03/29 00:58:35;;;;;;;0.55;0.55;;;;;;;6.37;60.05;95029.59;29395;204;63009;-54
2024/03/29 00:59:09;;;;;;;0.50;0.50;;;;;;;6.37;60.43;95023.41;29395;198;63004;-54
2024/03/29 00:59:43;;;;;;;0.50;0.50;;;;;;;6.38;60.15;95025.00;29395;206;63009;-53
2024/03/29 01:00:14;;;;;;;0.60;0.60;;;;;;;6.43;59.69;95021.38;29395;228;63005;-55
2024/03/29 01:00:47;;;;;;;0.57;0.57;;;;;;;6.42;59.12;95023.28;29395;302;63009;-54
2024/03/29 01:01:18;;;;;;;0.50;0.50;;;;;;;6.43;59.55;95027.56;29395;212;63010;-54
2024/03/29 01:01:50;;;;;;;0.50;0.50;;;;;;;6.43;59.54;95027.56;29395;270;63009;-54
2024/03/29 01:02:21;;;;;;;0.50;0.50;;;;;;;6.43;59.47;95024.06;29395;279;63005;-53
2024/03/29 01:02:53;;;;;;;0.50;0.50;;;;;;;6.42;59.54;95025.19;29394;216;64013;-54
2024/03/29 01:03:24;;;;;;;0.57;0.57;;;;;;;6.39;59.70;95019.31;29395;202;63005;-54
2024/03/29 01:03:55;;;;;;;0.50;0.50;;;;;;;6.39;59.67;95021.19;29395;202;63009;-54
2024/03/29 01:04:26;;;;;;;0.50;0.50;;;;;;;6.38;59.84;95020.41;29395;203;63004;-54
2024/03/29 01:04:57;;;;;;;0.50;0.50;;;;;;;6.37;60.14;95029.59;29394;245;64009;-69
2024/03/29 01:05:29;;;;;;;0.50;0.50;;;;;;;6.36;59.90;95027.22;29395;197;63004;-54
2024/03/29 01:06:00;;;;;;;0.50;0.50;;;;;;;6.35;60.03;95026.41;29395;188;63009;-54
2024/03/29 01:06:31;;;;;;;0.60;0.60;;;;;;;6.35;59.72;95029.09;29395;202;63004;-54
2024/03/29 01:07:03;;;;;;;0.60;0.60;;;;;;;6.34;59.93;95034.81;29394;207;64013;-54
2024/03/29 01:07:35;;;;;;;0.50;0.50;;;;;;;6.33;59.91;95036.69;29395;287;63005;-54
2024/03/29 01:08:06;;;;;;;0.50;0.50;;;;;;;6.34;60.08;95041.00;29394;199;64014;-56
2024/03/29 01:08:38;;;;;;;0.50;0.50;;;;;;;6.33;60.28;95044.00;29395;249;63012;-54
2024/03/29 01:09:13;;;;;;;0.60;0.60;;;;;;;6.32;60.44;95035.12;29395;197;63009;-54
2024/03/29 01:09:45;;;;;;;0.55;0.55;;;;;;;6.32;60.56;95037.00;29395;242;63005;-54
2024/03/29 01:10:21;;;;;;;0.50;0.50;;;;;;;6.31;61.07;95041.59;29395;206;63009;-54
2024/03/29 01:10:54;;;;;;;0.60;0.60;;;;;;;6.31;60.77;95032.72;29395;204;63005;-53
2024/03/29 01:11:25;;;;;;;0.55;0.55;;;;;;;6.31;60.46;95038.13;29395;202;63009;-53
2024/03/29 01:11:57;;;;;;;0.50;0.50;;;;;;;6.30;60.37;95036.53;29395;210;63004;-54
2024/03/29 01:12:28;;;;;;;0.60;0.60;;;;;;;6.28;60.44;95031.44;29394;214;64013;-54
2024/03/29 01:12:59;;;;;;;0.50;0.50;;;;;;;6.29;60.81;95037.63;29395;208;63007;-54
2024/03/29 01:13:30;;;;;;;0.50;0.50;;;;;;;6.27;61.05;95035.25;29394;222;64013;-54
2024/03/29 01:14:03;;;;;;;0.60;0.60;;;;;;;6.28;60.61;95030.66;29395;277;63004;-54
2024/03/29 01:14:34;;;;;;;0.60;0.60;;;;;;;6.28;60.80;95027.97;29395;204;63008;-53
2024/03/29 01:15:06;;;;;;;0.50;0.50;;;;;;;6.28;60.55;95025.25;29395;223;63005;-53
2024/03/29 01:15:37;;;;;;;0.60;0.60;;;;;;;6.27;60.82;95029.06;29395;313;63009;-53
2024/03/29 01:16:08;;;;;;;0.60;0.60;;;;;;;6.25;60.55;95028.56;29395;286;63005;-53
2024/03/29 01:16:40;;;;;;;0.50;0.50;;;;;;;6.22;60.86;95019.25;29395;285;63009;-54
2024/03/29 01:17:11;;;;;;;0.50;0.50;;;;;;;6.22;60.66;95021.16;29395;272;63005;-54
2024/03/29 01:17:42;;;;;;;0.50;0.50;;;;;;;6.22;60.92;95021.94;29395;283;63009;-54
2024/03/29 01:18:13;;;;;;;0.50;0.50;;;;;;;6.22;60.64;95021.16;29394;223;64009;-54
2024/03/29 01:18:45;;;;;;;0.60;0.60;;;;;;;6.20;60.81;95017.97;29395;203;63009;-54
2024/03/29 01:19:17;;;;;;;0.50;0.50;;;;;;;6.19;60.64;95022.56;29395;281;63004;-54
2024/03/29 01:19:48;;;;;;;0.60;0.60;;;;;;;6.18;60.67;95015.59;29395;196;63009;-54
2024/03/29 01:20:20;;;;;;;0.50;0.50;;;;;;;6.20;60.62;95013.38;29395;257;63004;-55
2024/03/29 01:20:51;;;;;;;0.50;0.50;;;;;;;6.20;60.38;95013.38;29395;209;63016;-54
2024/03/29 01:21:23;;;;;;;0.60;0.60;;;;;;;6.19;60.35;95016.37;29395;201;63004;-53
2024/03/29 01:21:55;;;;;;;0.52;0.52;;;;;;;6.25;60.21;95007.03;29395;253;63008;-54
2024/03/29 01:22:26;;;;;;;0.60;0.60;;;;;;;6.28;60.17;95009.09;29395;277;63005;-55
2024/03/29 01:22:58;;;;;;;0.50;0.50;;;;;;;6.29;60.12;95013.38;29394;246;64014;-54
2024/03/29 01:23:29;;;;;;;0.50;0.50;;;;;;;6.28;60.06;95015.28;29395;280;63005;-53
2024/03/29 01:24:05;;;;;;;0.55;0.55;;;;;;;6.28;60.18;95014.50;29395;268;63009;-55
2024/03/29 01:24:36;;;;;;;0.60;0.60;;;;;;;6.29;60.28;95010.69;29395;265;63009;-55
2024/03/29 01:25:11;;;;;;;0.50;0.50;;;;;;;6.31;60.05;95016.56;29395;246;63009;-54
2024/03/29 01:25:42;;;;;;;0.60;0.60;;;;;;;6.31;60.07;95013.88;29395;284;63004;-54
2024/03/29 01:26:17;;;;;;;0.50;0.50;;;;;;;6.31;60.29;95019.25;29395;262;63009;-54
2024/03/29 01:26:48;;;;;;;0.50;0.50;;;;;;;6.29;60.12;95018.78;29395;277;63004;-69
2024/03/29 01:27:19;;;;;;;0.50;0.50;;;;;;;6.28;60.28;95025.25;29395;225;63013;-54
2024/03/29 01:27:51;;;;;;;0.50;0.50;;;;;;;6.26;60.31;95022.88;29395;219;63004;-54
2024/03/29 01:28:22;;;;;;;0.60;0.60;;;;;;;6.26;60.62;95028.28;29394;281;64013;-55
2024/03/29 01:28:54;;;;;;;0.60;0.60;;;;;;;6.25;60.77;95023.97;29394;208;64009;-54
2024/03/29 01:29:26;;;;;;;0.57;0.57;;;;;;;6.28;60.69;95019.88;29395;252;63009;-54
2024/03/29 01:29:57;;;;;;;0.50;0.50;;;;;;;6.31;60.08;95013.88;29395;246;63005;-54
2024/03/29 01:30:32;;;;;;;0.50;0.50;;;;;;;6.30;60.41;95010.38;29395;222;63009;-54
2024/03/29 01:31:05;;;;;;;0.50;0.50;;;;;;;6.32;60.12;95010.06;29395;207;63005;-54
2024/03/29 01:31:37;;;;;;;0.60;0.60;;;;;;;6.32;60.22;95007.38;29395;244;63009;-54
2024/03/29 01:32:09;;;;;;;5.00;4.80;;;;;;;6.32;60.41;95010.06;29395;218;63005;-54
2024/03/29 01:32:40;;;;;;;0.60;0.60;;;;;;;6.35;60.14;95009.47;29395;312;63009;-54
2024/03/29 01:33:11;;;;;;;0.50;0.50;;;;;;;6.37;59.93;95009.94;29395;202;63004;-53
2024/03/29 01:33:42;;;;;;;0.50;0.50;;;;;;;6.36;59.79;95005.66;29395;197;63026;-54
2024/03/29 01:34:13;;;;;;;0.50;0.50;;;;;;;6.35;60.39;95009.47;29394;197;64009;-54
2024/03/29 01:34:45;;;;;;;0.50;0.50;;;;;;;6.32;60.49;95010.06;29395;202;63009;-53
2024/03/29 01:35:16;;;;;;;0.50;0.50;;;;;;;6.33;60.25;95003.59;29395;232;63004;-55
2024/03/29 01:35:47;;;;;;;0.55;0.55;;;;;;;6.33;60.37;95007.06;29395;273;63008;-53
2024/03/29 01:36:22;;;;;;;0.50;0.50;;;;;;;6.31;60.08;95006.59;29395;202;63008;-54
2024/03/29 01:36:53;;;;;;;0.50;0.50;;;;;;;6.31;60.18;95005.78;29395;206;63009;-54
2024/03/29 01:37:25;;;;;;;0.50;0.50;;;;;;;6.30;60.05;95001.50;29395;238;63005;-54
2024/03/29 01:37:57;;;;;;;0.50;0.50;;;;;;;6.30;60.47;95006.91;29395;218;63016;-54
2024/03/29 01:38:28;;;;;;;0.50;0.50;;;;;;;6.30;60.56;95009.59;29395;257;63005;-54
2024/03/29 01:39:00;;;;;;;0.50;0.50;;;;;;;6.29;61.06;94999.94;29395;303;63005;-54
2024/03/29 01:39:32;;;;;;;0.50;0.50;;;;;;;6.30;61.05;95010.38;29394;288;64009;-54
2024/03/29 01:40:04;;;;;;;0.50;0.50;;;;;;;6.31;60.82;95003.09;29395;241;63009;-53
2024/03/29 01:40:35;;;;;;;0.50;0.50;;;;;;;6.32;60.72;94996.59;29395;262;63005;-54
2024/03/29 01:41:08;;;;;;;0.60;0.60;;;;;;;6.33;60.49;94995.50;29395;247;63009;-54
2024/03/29 01:41:39;;;;;;;0.50;0.50;;;;;;;6.35;60.17;94993.28;29395;245;63004;-54
2024/03/29 01:42:11;;;;;;;0.50;0.50;;;;;;;6.39;59.75;94986.19;29395;235;63009;-55
2024/03/29 01:42:45;;;;;;;0.50;0.50;;;;;;;6.42;59.83;94992.84;29395;204;63004;-55
2024/03/29 01:43:17;;;;;;;0.50;0.50;;;;;;;6.41;59.75;94986.66;29395;252;63008;-55
2024/03/29 01:43:48;;;;;;;0.50;0.50;;;;;;;6.42;59.83;94987.47;29395;266;63004;-56
2024/03/29 01:44:19;;;;;;;0.50;0.50;;;;;;;6.44;59.86;94983.34;29395;229;63009;-55
2024/03/29 01:44:50;;;;;;;0.50;0.50;;;;;;;6.44;59.58;94977.97;29394;269;64009;-53
2024/03/29 01:45:21;;;;;;;0.60;0.60;;;;;;;6.44;59.67;94983.34;29395;197;63020;-54
2024/03/29 01:45:54;;;;;;;0.60;0.60;;;;;;;6.47;59.45;94973.84;29395;197;63005;-54
2024/03/29 01:46:27;;;;;;;0.60;0.60;;;;;;;6.49;59.15;94979.72;29395;295;63009;-70
2024/03/29 01:46:58;;;;;;;0.60;0.60;;;;;;;6.50;59.07;94978.63;29395;211;63005;-53
2024/03/29 01:47:30;;;;;;;0.50;0.50;;;;;;;6.51;59.45;94980.19;29395;199;63009;-55
2024/03/29 01:48:01;;;;;;;0.60;0.60;;;;;;;6.51;58.96;94978.31;29395;288;63005;-53
2024/03/29 01:48:32;;;;;;;0.50;0.50;;;;;;;6.51;59.41;94986.37;29395;218;63009;-53
2024/03/29 01:49:05;;;;;;;0.50;0.50;;;;;;;6.50;59.16;94984.78;29395;276;63004;-53
2024/03/29 01:49:37;;;;;;;0.50;0.50;;;;;;;6.50;59.36;94984.78;29395;227;63009;-53
2024/03/29 01:50:09;;;;;;;0.50;0.50;;;;;;;6.48;59.36;94987.00;29394;214;64009;-53
2024/03/29 01:50:41;;;;;;;0.60;0.60;;;;;;;6.50;59.60;94989.38;29395;196;63008;-53
2024/03/29 01:51:15;;;;;;;0.50;0.50;;;;;;;6.49;58.93;94990.50;29395;293;63004;-53
2024/03/29 01:51:46;;;;;;;0.50;0.50;;;;;;;6.45;59.11;94993.03;29395;215;63009;-53
2024/03/29 01:52:19;;;;;;;0.60;0.60;;;;;;;6.45;59.06;94993.03;29395;214;63005;-54
2024/03/29 01:52:51;;;;;;;0.50;0.50;;;;;;;6.45;59.47;94998.41;29395;222;63009;-53
2024/03/29 01:53:24;;;;;;;0.50;0.50;;;;;;;6.44;59.44;94996.81;29395;278;63005;-53
2024/03/29 01:53:56;;;;;;;0.50;0.50;;;;;;;6.46;59.28;95000.00;29395;207;63009;-53
2024/03/29 01:54:27;;;;;;;0.60;0.60;;;;;;;6.47;59.20;95006.19;29395;203;63005;-53
2024/03/29 01:54:58;;;;;;;0.50;0.50;;;;;;;6.47;59.40;95006.97;29395;208;63009;-53
2024/03/29 01:55:30;;;;;;;0.50;0.50;;;;;;;6.49;59.68;95003.97;29394;253;64009;-54
2024/03/29 01:56:02;;;;;;;0.60;0.60;;;;;;;6.51;59.23;95002.56;29394;198;64013;-54
2024/03/29 01:56:37;;;;;;;0.60;0.60;;;;;;;6.55;58.68;94992.75;29395;222;63004;-53
2024/03/29 01:57:09;;;;;;;0.60;0.60;;;;;;;6.55;58.84;94997.34;29394;249;64009;-53
2024/03/29 01:57:41;;;;;;;0.50;0.50;;;;;;;6.55;59.15;94992.75;29395;208;63004;-53
2024/03/29 01:58:14;;;;;;;0.50;0.50;;;;;;;6.55;58.94;94995.44;29395;246;63009;-53
2024/03/29 01:58:47;;;;;;;0.60;0.60;;;;;;;6.54;58.99;94996.53;29395;215;63004;-53
2024/03/29 01:59:19;;;;;;;0.50;0.50;;;;;;;6.53;58.97;95000.34;29395;254;63009;-53
2024/03/29 01:59:51;;;;;;;0.55;0.55;;;;;;;6.55;59.09;95000.03;29395;258;63005;-53
2024/03/29 02:00:23;;;;;;;0.60;0.60;;;;;;;6.56;58.74;94997.03;29394;219;64014;-53
2024/03/29 02:00:57;;;;;;;0.60;0.60;;;;;;;6.58;58.89;94988.63;29395;254;63005;-53
2024/03/29 02:01:30;;;;;;;0.60;0.60;;;;;;;6.56;59.14;94993.53;29395;207;63009;-53
2024/03/29 02:02:03;;;;;;;0.50;0.50;;;;;;;6.55;59.55;94994.63;29394;220;64009;-53
2024/03/29 02:02:35;;;;;;;1.00;0.98;;;;;;;6.56;59.45;94994.31;29395;312;63009;-53
2024/03/29 02:03:13;;;;;;;0.60;0.60;;;;;;;6.58;58.91;94994.81;29395;313;63005;-53
2024/03/29 02:03:46;;;;;;;0.57;0.57;;;;;;;6.63;58.96;94999.22;29395;212;63009;-54
2024/03/29 02:04:19;;;;;;;0.50;0.50;;;;;;;6.63;58.22;94997.34;29395;207;63004;-53
2024/03/29 02:04:51;;;;;;;0.50;0.50;;;;;;;6.63;58.68;95000.03;29395;229;63013;-53
2024/03/29 02:05:24;;;;;;;0.50;0.50;;;;;;;6.63;58.65;95000.03;29395;230;63004;-53
2024/03/29 02:05:59;;;;;;;0.60;0.60;;;;;;;6.62;59.01;95003.84;29395;270;63008;-53
2024/03/29 02:06:32;;;;;;;0.55;0.55;;;;;;;6.60;59.05;94997.16;29394;243;64008;-53
2024/03/29 02:07:04;;;;;;;0.50;0.50;;;;;;;6.59;59.19;94992.87;29394;238;64014;-53
2024/03/29 02:07:36;;;;;;;0.50;0.50;;;;;;;6.56;59.42;94994.31;29395;234;63005;-53
2024/03/29 02:08:11;;;;;;;0.60;0.60;;;;;;;6.55;59.47;94995.44;29395;287;63009;-54
2024/03/29 02:08:43;;;;;;;0.50;0.50;;;;;;;6.56;59.23;94994.31;29395;259;63008;-53
2024/03/29 02:09:14;;;;;;;0.60;0.60;;;;;;;6.54;59.74;94995.75;29395;240;63009;-53
2024/03/29 02:09:46;;;;;;;0.50;0.50;;;;;;;6.51;59.44;95002.56;29395;234;63005;-53
2024/03/29 02:10:21;;;;;;;0.60;0.60;;;;;;;6.50;59.34;94995.56;29395;214;63009;-53
2024/03/29 02:10:52;;;;;;;0.60;0.60;;;;;;;6.50;59.77;94995.56;29395;234;63004;-53
2024/03/29 02:11:24;;;;;;;0.60;0.60;;;;;;;6.49;60.07;94993.19;29395;227;63009;-54
2024/03/29 02:11:55;;;;;;;0.50;0.50;;;;;;;6.54;59.24;94996.53;29395;253;63004;-53
2024/03/29 02:12:29;;;;;;;0.50;0.50;;;;;;;6.54;59.21;94988.47;29394;209;64013;-52
2024/03/29 02:13:07;;;;;;;0.50;0.50;;;;;;;6.52;59.07;94996.06;29395;290;63004;-53
2024/03/29 02:13:40;;;;;;;0.60;0.60;;;;;;;6.50;59.35;94995.56;29395;205;63008;-53
2024/03/29 02:14:11;;;;;;;0.50;0.50;;;;;;;6.52;59.82;95006.03;29395;232;63005;-53
2024/03/29 02:14:42;;;;;;;0.50;0.50;;;;;;;6.51;59.86;95007.94;29395;246;63009;-68
2024/03/29 02:15:16;;;;;;;0.50;0.50;;;;;;;6.49;59.90;94999.38;29395;216;63005;-53
2024/03/29 02:15:47;;;;;;;0.60;0.60;;;;;;;6.48;59.95;94997.78;29395;232;63009;-68
2024/03/29 02:16:19;;;;;;;0.60;0.60;;;;;;;6.48;60.02;94997.78;29394;202;63999;-54
2024/03/29 02:16:51;;;;;;;0.60;0.60;;;;;;;6.48;59.89;95008.56;29395;202;63016;-54
2024/03/29 02:17:23;;;;;;;0.50;0.50;;;;;;;6.48;60.07;94997.78;29394;292;64009;-53
2024/03/29 02:17:55;;;;;;;0.50;0.50;;;;;;;6.49;59.74;95004.75;29395;202;63009;-53
2024/03/29 02:18:26;;;;;;;0.50;0.50;;;;;;;6.52;59.16;94998.75;29395;212;63004;-54
2024/03/29 02:19:01;;;;;;;0.50;0.50;;;;;;;6.53;59.26;94999.53;29395;198;63009;-54
2024/03/29 02:19:32;;;;;;;0.50;0.50;;;;;;;6.52;59.32;95001.44;29395;248;63011;-53
2024/03/29 02:20:05;;;;;;;0.50;0.50;;;;;;;6.52;59.53;94996.06;29395;209;63008;-54
2024/03/29 02:20:37;;;;;;;0.50;0.50;;;;;;;6.51;59.70;95005.25;29395;211;63004;-54
2024/03/29 02:21:10;;;;;;;0.50;0.50;;;;;;;6.53;59.52;95000.34;29394;203;64014;-54
2024/03/29 02:21:47;;;;;;;0.60;0.60;;;;;;;6.51;59.53;94997.16;29395;200;63005;-54
2024/03/29 02:22:22;;;;;;;0.60;0.60;;;;;;;6.50;59.52;94995.56;29395;199;63009;-54
2024/03/29 02:23:16;;;;;;;0.60;0.60;;;;;;;6.54;59.21;94991.16;29394;291;64009;-53
2024/03/29 02:23:56;;;;;;;0.50;0.50;;;;;;;6.54;59.21;94996.53;29395;278;63009;-54
2024/03/29 02:24:28;;;;;;;0.50;0.50;;;;;;;6.55;59.28;94990.03;29417;265;63005;-69
2024/03/29 02:25:01;;;;;;;0.60;0.60;;;;;;;6.53;59.64;94994.94;29395;220;63009;-54
2024/03/29 02:25:32;;;;;;;0.50;0.50;;;;;;;6.52;59.22;94987.19;29395;260;63004;-54
2024/03/29 02:26:04;;;;;;;0.50;0.50;;;;;;;6.50;60.21;94984.00;29395;212;63019;-53
2024/03/29 02:26:41;;;;;;;0.50;0.50;;;;;;;6.45;60.32;94982.25;29394;211;64009;-54
2024/03/29 02:27:13;;;;;;;0.50;0.50;;;;;;;6.44;60.24;94979.84;29395;206;63009;-54
2024/03/29 02:27:45;;;;;;;0.50;0.50;;;;;;;6.43;60.04;94987.16;29395;202;63004;-54
2024/03/29 02:28:17;;;;;;;0.50;0.50;;;;;;;6.45;59.86;94986.84;29395;254;63004;-54
2024/03/29 02:28:48;;;;;;;0.60;0.60;;;;;;;6.44;59.78;94980.66;29395;206;63005;-53
2024/03/29 02:29:19;;;;;;;0.50;0.50;;;;;;;6.45;59.87;94986.84;29395;211;63009;-54
2024/03/29 02:29:51;;;;;;;0.50;0.50;;;;;;;6.46;60.27;94983.84;29394;237;64009;-70
2024/03/29 02:30:22;;;;;;;0.50;0.50;;;;;;;6.48;60.07;94988.91;29395;219;63006;-71
2024/03/29 02:30:54;;;;;;;0.50;0.50;;;;;;;6.49;60.10;94985.09;29395;244;63005;-55
2024/03/29 02:31:25;;;;;;;0.50;0.50;;;;;;;6.50;59.98;94995.56;29395;205;63009;-54
2024/03/29 02:31:56;;;;;;;0.50;0.50;;;;;;;6.48;60.12;94997.78;29395;206;63005;-54
2024/03/29 02:32:27;;;;;;;0.50;0.50;;;;;;;6.49;60.08;94995.88;29394;249;64013;-53
2024/03/29 02:33:00;;;;;;;0.50;0.50;;;;;;;6.48;59.98;94980.81;29395;275;63004;-53
2024/03/29 02:33:31;;;;;;;0.50;0.50;;;;;;;6.47;60.03;94985.41;29395;310;63009;-54
2024/03/29 02:34:03;;;;;;;0.60;0.60;;;;;;;6.45;60.03;94979.53;29394;215;63998;-54
2024/03/29 02:34:34;;;;;;;0.60;0.60;;;;;;;6.45;59.93;94976.84;29395;215;63009;-54
2024/03/29 02:35:06;;;;;;;0.60;0.60;;;;;;;6.44;59.84;94975.25;29395;241;63013;-53